Time;durP1;ratioP1;P1;durP2;ratioP2;P2;SDS_P1;SDS_P2;PMS_P1;PMS_P2;Temp;Humidity;BMP_temperature;BMP_pressure;BME280_temperature;BME280_humidity;BME280_pressure;Samples;Min_cycle;Max_cycle;Signal;HPM_P1;HPM_P2
2021/12/28 00:01:04;;;;;;;;;0.00;0.00;;;;;12.43;84.91;98928.81;4994246;28;45523;-91
2021/12/28 00:03:30;;;;;;;;;0.00;0.00;;;;;10.97;85.70;98666.38;4993666;28;45380;-93
2021/12/28 00:05:56;;;;;;;;;1.00;0.67;;;;;11.51;85.49;98743.94;4993901;28;45548;-89
2021/12/28 00:08:22;;;;;;;;;1.33;0.67;;;;;11.51;85.78;98755.47;5010495;28;46832;-92
2021/12/28 00:10:48;;;;;;;;;0.00;0.00;;;;;12.30;86.32;98888.91;4994873;28;45346;-94
2021/12/28 00:13:15;;;;;;;;;0.33;0.00;;;;;12.52;85.78;98911.22;4993589;28;45341;-92
2021/12/28 00:16:00;;;;;;;;;0.00;0.00;;;;;12.26;85.65;98860.72;5010755;28;45564;-93
2021/12/28 00:18:27;;;;;;;;;1.33;0.00;;;;;12.08;85.77;98823.03;5009807;28;47121;-93
2021/12/28 00:20:56;;;;;;;;;0.00;0.00;;;;;11.66;84.84;98760.53;4995314;28;45172;-93
2021/12/28 00:23:25;;;;;;;;;0.00;0.00;;;;;12.16;84.18;98838.44;4993911;28;45496;-92
2021/12/28 00:25:53;;;;;;;;;0.00;0.00;;;;;12.37;83.87;98854.53;4994204;28;45518;-93
2021/12/28 00:28:20;;;;;;;;;1.00;1.00;;;;;13.03;83.83;98956.03;4994430;28;45473;-91
2021/12/28 00:30:47;;;;;;;;;0.00;0.00;;;;;12.87;83.85;98921.69;4993406;28;45365;-92
2021/12/28 00:33:13;;;;;;;;;0.33;0.33;;;;;12.16;83.54;98812.56;4993947;28;45451;-92
2021/12/28 00:35:40;;;;;;;;;0.00;0.00;;;;;12.11;83.78;98820.09;4992266;28;45606;-91
2021/12/28 00:38:08;;;;;;;;;0.00;0.00;;;;;12.49;83.23;98882.06;4992077;28;48304;-92
2021/12/28 00:40:35;;;;;;;;;0.00;0.00;;;;;12.13;84.10;98820.84;4992176;28;45326;-91
2021/12/28 00:43:00;;;;;;;;;0.67;0.00;;;;;12.59;84.09;98893.69;4992427;28;45399;-92
2021/12/28 00:45:28;;;;;;;;;0.67;0.00;;;;;11.77;83.86;98756.03;4992556;28;45357;-91
2021/12/28 00:47:53;;;;;;;;;1.67;0.33;;;;;12.25;83.99;98835.84;4993170;28;45489;-91
2021/12/28 00:50:20;;;;;;;;;0.00;0.00;;;;;12.57;85.10;98883.16;4993348;28;45465;-91
2021/12/28 00:52:46;;;;;;;;;0.33;0.33;;;;;11.94;83.77;98785.91;4993536;28;45502;-92
2021/12/28 00:55:14;;;;;;;;;0.33;0.00;;;;;12.89;84.37;98936.63;4993831;28;45267;-91
2021/12/28 00:57:40;;;;;;;;;0.00;0.00;;;;;12.33;84.93;98850.41;5008031;28;46750;-90
2021/12/28 01:00:10;;;;;;;;;0.00;0.00;;;;;11.84;83.58;98770.59;5008145;28;45336;-87
2021/12/28 01:02:36;;;;;;;;;0.00;0.00;;;;;12.71;84.46;98902.53;4991759;28;45457;-90
2021/12/28 01:05:01;;;;;;;;;1.00;0.00;;;;;12.17;84.64;98805.38;4993076;28;45513;-90
2021/12/28 01:07:26;;;;;;;;;1.33;0.00;;;;;12.50;83.51;98859.72;4992706;28;45692;-90
2021/12/28 01:09:52;;;;;;;;;0.00;0.00;;;;;12.34;84.48;98833.38;4993135;28;45511;-90
2021/12/28 01:12:18;;;;;;;;;0.00;0.00;;;;;12.95;83.96;98950.47;4994889;28;45532;-90
2021/12/28 01:14:43;;;;;;;;;0.00;0.00;;;;;12.25;84.17;98843.88;4996346;28;45680;-91
2021/12/28 01:17:09;;;;;;;;;0.00;0.00;;;;;12.04;84.10;98809.06;4995977;28;45568;-90
2021/12/28 01:19:34;;;;;;;;;0.00;0.00;;;;;12.18;84.09;98825.81;4995830;28;45487;-90
2021/12/28 01:22:03;;;;;;;;;0.00;0.00;;;;;12.36;84.70;98836.78;4996046;28;45577;-91
2021/12/28 01:24:31;;;;;;;;;0.67;0.00;;;;;13.09;84.21;98958.22;4996098;28;45498;-90
2021/12/28 01:26:57;;;;;;;;;0.00;0.00;;;;;12.44;83.79;98843.22;4995518;28;46348;-90
2021/12/28 01:29:23;;;;;;;;;0.00;0.00;;;;;13.15;83.77;98941.63;4994520;28;45527;-90
2021/12/28 01:31:48;;;;;;;;;0.00;0.00;;;;;12.67;84.36;98869.88;4994651;28;45762;-90
2021/12/28 01:34:14;;;;;;;;;0.00;0.00;;;;;12.39;83.84;98809.84;5011389;28;45444;-91
2021/12/28 01:36:39;;;;;;;;;0.00;0.00;;;;;12.73;83.50;98868.50;4995403;28;45404;-89
2021/12/28 01:39:06;;;;;;;;;0.67;0.00;;;;;12.64;83.52;98854.06;4995516;28;45504;-90
2021/12/28 01:41:32;;;;;;;;;0.00;0.00;;;;;13.28;83.25;98955.72;5011013;28;45281;-89
2021/12/28 01:43:59;;;;;;;;;0.00;0.00;;;;;13.32;83.63;98958.97;4996101;28;45662;-90
2021/12/28 01:46:25;;;;;;;;;0.00;0.00;;;;;13.02;82.95;98916.91;5010737;28;47144;-89
2021/12/28 01:48:50;;;;;;;;;0.00;0.00;;;;;12.30;82.63;98794.56;4995375;28;45423;-90
2021/12/28 01:51:21;;;;;;;;;0.00;0.00;;;;;13.13;83.06;98942.75;4995830;28;45410;-90
2021/12/28 01:53:49;;;;;;;;;0.00;0.00;;;;;12.45;83.05;98830.69;4994389;28;46142;-90
2021/12/28 01:56:40;;;;;;;;;0.00;0.00;;;;;13.14;82.88;98941.78;4994208;28;47370;-90
2021/12/28 01:59:07;;;;;;;;;0.00;0.00;;;;;13.43;82.78;98996.41;4995371;28;45324;-90
2021/12/28 02:01:33;;;;;;;;;0.00;0.00;;;;;13.43;82.87;98992.88;4995411;28;45322;-90
2021/12/28 02:03:58;;;;;;;;;0.00;0.00;;;;;12.90;82.84;98910.75;4994596;28;45660;-89
2021/12/28 02:06:25;;;;;;;;;0.00;0.00;;;;;13.48;83.02;99012.91;4995355;28;45414;-89
2021/12/28 02:08:53;;;;;;;;;0.00;0.00;;;;;12.99;82.55;98944.72;4995331;28;45319;-89
2021/12/28 02:11:19;;;;;;;;;0.00;0.00;;;;;13.46;82.50;99028.28;4995488;28;45394;-87
2021/12/28 02:13:45;;;;;;;;;0.00;0.00;;;;;13.29;81.93;98991.34;4994467;28;45516;-88
2021/12/28 02:16:11;;;;;;;;;2.00;0.00;;;;;13.14;81.79;98982.75;4995044;28;45399;-90
2021/12/28 02:18:37;;;;;;;;;0.00;0.00;;;;;13.17;81.73;98987.00;5010545;28;45398;-90
2021/12/28 02:21:05;;;;;;;;;0.00;0.00;;;;;13.02;81.37;98963.22;4992859;28;45465;-86
2021/12/28 02:23:31;;;;;;;;;0.00;0.00;;;;;13.33;81.47;99014.22;4994057;28;45450;-90
2021/12/28 02:25:57;;;;;;;;;0.00;0.00;;;;;13.02;81.08;98995.31;4995235;28;45414;-89
2021/12/28 02:28:22;;;;;;;;;0.00;0.00;;;;;13.06;81.41;99019.97;4995377;28;45539;-89
2021/12/28 02:30:53;;;;;;;;;0.00;0.00;;;;;13.29;80.89;99039.50;4995511;28;45413;-89
2021/12/28 02:33:21;;;;;;;;;1.00;0.00;;;;;12.78;80.68;98965.22;4994381;28;45568;-89
2021/12/28 02:35:46;;;;;;;;;0.00;0.00;;;;;12.87;80.26;98973.31;5007058;28;47327;-89
2021/12/28 02:38:12;;;;;;;;;0.00;0.00;;;;;12.76;80.78;98976.06;4994053;28;45565;-90
2021/12/28 02:40:41;;;;;;;;;0.67;0.67;;;;;12.78;80.98;98984.78;4995614;28;45413;-89
2021/12/28 02:43:10;;;;;;;;;0.00;0.00;;;;;13.08;80.49;99037.56;4995598;28;45343;-90
2021/12/28 02:45:39;;;;;;;;;0.00;0.00;;;;;13.15;80.48;99053.97;4993854;28;47190;-87
2021/12/28 02:48:06;;;;;;;;;0.00;0.00;;;;;12.96;80.37;99045.75;4995414;28;45408;-90
2021/12/28 02:50:39;;;;;;;;;1.00;0.00;;;;;12.61;80.70;98988.81;4995637;28;45621;-90
2021/12/28 02:53:06;;;;;;;;;0.67;0.67;;;;;12.92;80.26;99046.97;4994531;28;45530;-90
2021/12/28 02:55:33;;;;;;;;;0.00;0.00;;;;;12.49;80.00;98983.63;4995154;28;46654;-89
2021/12/28 02:58:02;;;;;;;;;0.00;0.00;;;;;12.54;80.15;98992.94;4994323;28;45313;-89
2021/12/28 03:00:36;;;;;;;;;0.00;0.00;;;;;12.57;79.62;99019.44;4994269;28;45299;-88
2021/12/28 03:03:11;;;;;;;;;0.67;0.00;;;;;13.41;79.97;99152.72;4995466;28;45525;-88
2021/12/28 03:05:39;;;;;;;;;1.00;0.00;;;;;12.88;80.00;99065.94;4993822;28;47209;-88
2021/12/28 03:08:05;;;;;;;;;0.00;0.00;;;;;13.42;80.28;99152.59;4994980;28;45434;-89
2021/12/28 03:10:30;;;;;;;;;0.00;0.00;;;;;12.55;80.61;99016.03;4995665;28;45365;-89
2021/12/28 03:12:56;;;;;;;;;0.33;0.00;;;;;12.59;79.71;99012.13;4994253;28;45393;-89
2021/12/28 03:15:22;;;;;;;;;1.00;0.00;;;;;13.47;80.14;99153.09;4995415;28;45312;-88
2021/12/28 03:17:47;;;;;;;;;0.00;0.00;;;;;13.50;79.86;99152.81;4995040;28;45504;-88
2021/12/28 03:20:15;;;;;;;;;1.00;0.00;;;;;12.65;79.97;99018.81;4995173;28;45460;-89
2021/12/28 03:22:40;;;;;;;;;0.67;0.00;;;;;13.44;79.80;99139.97;4995417;28;45455;-88
2021/12/28 03:25:07;;;;;;;;;0.00;0.00;;;;;13.52;79.67;99148.19;4994767;28;45411;-88
2021/12/28 03:27:32;;;;;;;;;0.00;0.00;;;;;12.91;79.36;99050.63;4995222;28;45205;-89
2021/12/28 03:29:58;;;;;;;;;0.00;0.00;;;;;12.98;79.76;99078.59;4995281;28;45395;-88
2021/12/28 03:32:23;;;;;;;;;2.00;0.00;;;;;13.08;79.46;99084.88;4994856;28;45622;-88
2021/12/28 03:34:48;;;;;;;;;0.00;0.00;;;;;12.56;79.65;98998.19;4994456;28;46432;-88
2021/12/28 03:37:14;;;;;;;;;0.00;0.00;;;;;12.83;79.58;99035.19;4994730;28;45219;-87
2021/12/28 03:39:39;;;;;;;;;1.00;0.00;;;;;12.72;79.04;99036.06;4994889;28;45366;-88
2021/12/28 03:42:05;;;;;;;;;0.00;0.00;;;;;13.44;79.55;99149.81;4995214;28;45473;-88
2021/12/28 03:44:31;;;;;;;;;0.00;0.00;;;;;13.62;79.18;99187.59;5079376;27;47385;-87
2021/12/28 03:46:57;;;;;;;;;0.33;0.00;;;;;12.94;79.33;99069.09;4993154;28;45388;-88
2021/12/28 03:49:22;;;;;;;;;0.00;0.00;;;;;12.65;79.05;99021.50;4994395;28;45468;-88
2021/12/28 03:51:47;;;;;;;;;0.33;0.00;;;;;13.62;78.81;99175.06;4995096;28;45444;-88
2021/12/28 03:54:13;;;;;;;;;1.00;1.00;;;;;12.87;79.38;99068.75;4992823;28;48322;-87
2021/12/28 03:56:38;;;;;;;;;0.00;0.00;;;;;12.91;79.31;99061.34;4994668;28;45487;-88
2021/12/28 03:59:04;;;;;;;;;0.33;0.33;;;;;12.74;78.78;99042.16;4994452;28;45622;-87
2021/12/28 04:01:29;;;;;;;;;0.00;0.00;;;;;13.22;79.31;99130.09;4993415;28;45455;-87
2021/12/28 04:03:55;;;;;;;;;0.00;0.00;;;;;13.00;78.96;99085.50;4994250;28;45455;-88
2021/12/28 04:06:21;;;;;;;;;0.67;0.00;;;;;13.65;79.31;99192.69;4994137;28;45461;-87
2021/12/28 04:08:48;;;;;;;;;0.00;0.00;;;;;12.43;78.99;98998.28;5009600;28;45528;-87
2021/12/28 04:11:34;;;;;;;;;0.00;0.00;;;;;12.43;79.27;98990.28;4993224;28;45319;-87
2021/12/28 04:14:02;;;;;;;;;1.00;0.00;;;;;12.74;79.09;99031.47;4994041;28;45998;-87
2021/12/28 04:16:29;;;;;;;;;1.00;1.00;;;;;13.07;78.93;99080.53;4994057;28;45473;-86
2021/12/28 04:18:55;;;;;;;;;1.00;1.00;;;;;13.71;78.57;99193.06;5008949;28;45415;-87
2021/12/28 04:21:20;;;;;;;;;1.00;1.00;;;;;12.98;78.72;99076.75;4992967;28;45376;-86
2021/12/28 04:23:46;;;;;;;;;0.00;0.00;;;;;13.64;78.51;99182.97;4993982;28;45914;-87
2021/12/28 04:26:11;;;;;;;;;1.00;0.00;;;;;13.56;78.08;99169.38;4993978;28;45364;-86
2021/12/28 04:28:37;;;;;;;;;1.00;1.00;;;;;12.74;78.63;99041.31;4994184;28;45508;-86
2021/12/28 04:31:03;;;;;;;;;0.00;0.00;;;;;12.97;78.45;99093.78;4993061;28;45450;-86
2021/12/28 04:33:28;;;;;;;;;1.00;1.00;;;;;13.59;78.56;99194.06;5008652;28;47349;-85
2021/12/28 04:35:54;;;;;;;;;0.00;0.00;;;;;13.68;78.45;99216.56;4993303;28;45330;-85
2021/12/28 04:38:19;;;;;;;;;0.00;0.00;;;;;13.70;78.33;99210.09;4993797;28;45408;-85
2021/12/28 04:40:45;;;;;;;;;2.00;0.00;;;;;12.82;78.05;99078.97;5009182;28;45494;-85
2021/12/28 04:43:12;;;;;;;;;0.00;0.00;;;;;13.20;78.32;99148.09;4993801;28;45392;-87
2021/12/28 04:45:38;;;;;;;;;1.00;1.00;;;;;13.09;77.80;99118.69;4996259;28;45533;-84
2021/12/28 04:48:06;;;;;;;;;0.00;0.00;;;;;13.66;78.05;99211.31;4996294;28;45424;-84
2021/12/28 04:50:37;;;;;;;;;0.00;0.00;;;;;12.76;77.89;99076.75;4997122;28;45396;-87
2021/12/28 04:53:08;;;;;;;;;0.00;0.00;;;;;12.93;78.12;99099.50;4996547;28;45469;-87
2021/12/28 04:55:34;;;;;;;;;1.00;0.00;;;;;13.51;78.33;99183.97;4996664;28;45403;-84
2021/12/28 04:57:59;;;;;;;;;0.00;0.00;;;;;12.94;77.66;99103.88;4996714;28;45479;-85
2021/12/28 05:00:25;;;;;;;;;0.33;0.00;;;;;13.10;77.84;99113.19;4996990;28;45526;-86
2021/12/28 05:02:50;;;;;;;;;1.67;1.67;;;;;12.88;77.34;99095.38;4996104;28;46423;-84
2021/12/28 05:05:16;;;;;;;;;0.00;0.00;;;;;13.44;77.22;99188.13;4995302;28;45487;-85
2021/12/28 05:07:42;;;;;;;;;1.00;1.00;;;;;13.70;77.33;99231.53;4996569;28;45461;-83
2021/12/28 05:10:08;;;;;;;;;0.00;0.00;;;;;12.95;76.84;99113.59;4996875;28;45545;-83
2021/12/28 05:12:33;;;;;;;;;0.00;0.00;;;;;13.57;76.95;99211.22;4996306;28;45872;-85
2021/12/28 05:15:00;;;;;;;;;0.00;0.00;;;;;13.76;77.11;99245.38;4995040;28;45511;-83
2021/12/28 05:17:27;;;;;;;;;0.33;0.33;;;;;13.23;76.61;99163.06;4996139;28;45354;-85
2021/12/28 05:19:53;;;;;;;;;0.00;0.00;;;;;13.72;76.81;99247.47;4996622;28;45369;-84
2021/12/28 05:22:19;;;;;;;;;1.00;1.00;;;;;13.34;76.76;99187.16;4996221;28;46304;-83
2021/12/28 05:24:44;;;;;;;;;0.00;0.00;;;;;13.17;76.64;99166.22;4996170;28;45413;-83
2021/12/28 05:27:10;;;;;;;;;0.00;0.00;;;;;13.72;76.05;99258.19;4996374;28;45384;-83
2021/12/28 05:29:35;;;;;;;;;0.00;0.00;;;;;13.14;76.76;99155.78;4996483;28;45387;-83
2021/12/28 05:32:01;;;;;;;;;0.00;0.00;;;;;13.13;75.86;99151.38;4995835;28;46352;-83
2021/12/28 05:34:27;;;;;;;;;2.00;0.67;;;;;13.85;75.92;99274.94;4996305;28;45377;-83
2021/12/28 05:36:52;;;;;;;;;0.00;0.00;;;;;13.65;76.16;99248.91;4995951;28;45354;-84
2021/12/28 05:39:18;;;;;;;;;1.00;0.67;;;;;12.60;75.32;99069.13;4996585;28;45386;-83
2021/12/28 05:41:43;;;;;;;;;0.00;0.00;;;;;13.69;75.79;99263.78;4995771;28;45903;-83
2021/12/28 05:44:08;;;;;;;;;0.33;0.33;;;;;13.73;75.34;99257.19;4996162;28;45428;-83
2021/12/28 05:46:34;;;;;;;;;0.33;0.00;;;;;13.13;75.82;99170.97;4994627;28;45251;-83
2021/12/28 05:48:59;;;;;;;;;0.00;0.00;;;;;13.24;75.74;99195.03;4996482;28;45403;-83
2021/12/28 05:51:24;;;;;;;;;0.00;0.00;;;;;12.99;75.41;99155.16;4995957;28;46075;-83
2021/12/28 05:53:50;;;;;;;;;0.00;0.00;;;;;13.06;75.66;99172.41;4995874;28;45494;-83
2021/12/28 05:56:15;;;;;;;;;1.00;1.00;;;;;13.48;75.55;99245.78;4995845;28;45259;-83
2021/12/28 05:58:41;;;;;;;;;0.67;0.00;;;;;13.28;74.38;99203.72;4994576;28;45568;-83
2021/12/28 06:01:07;;;;;;;;;5.33;0.00;;;;;13.73;75.02;99283.97;4995560;28;45770;-83
2021/12/28 06:03:32;;;;;;;;;1.00;1.00;;;;;13.87;74.99;99310.50;4995708;28;45646;-82
2021/12/28 06:05:57;;;;;;;;;0.00;0.00;;;;;13.76;75.17;99299.78;4995917;28;45446;-83
2021/12/28 06:08:23;;;;;;;;;0.67;0.00;;;;;13.89;74.68;99318.41;4996046;28;45451;-84
2021/12/28 06:10:49;;;;;;;;;1.33;0.00;;;;;13.62;74.25;99275.94;4995608;28;46247;-83
2021/12/28 06:13:14;;;;;;;;;0.00;0.00;;;;;13.43;74.60;99247.13;4995720;28;45440;-83
2021/12/28 06:15:40;;;;;;;;;1.00;1.00;;;;;13.41;73.92;99243.72;4995355;28;45391;-83
2021/12/28 06:18:05;;;;;;;;;2.00;1.00;;;;;13.76;74.32;99291.75;4996202;28;45366;-84
2021/12/28 06:20:30;;;;;;;;;2.00;0.00;;;;;13.95;73.50;99333.97;4995800;28;45647;-83
2021/12/28 06:22:56;;;;;;;;;0.00;0.00;;;;;14.02;73.86;99337.88;4995610;28;45617;-82
2021/12/28 06:25:21;;;;;;;;;2.00;0.00;;;;;13.68;72.87;99276.31;4996007;28;45423;-83
2021/12/28 06:27:47;;;;;;;;;0.67;0.67;;;;;13.83;73.00;99313.53;4995748;28;45619;-82
2021/12/28 06:30:12;;;;;;;;;0.00;0.00;;;;;14.03;73.24;99342.25;4995263;28;45994;-83
2021/12/28 06:32:38;;;;;;;;;0.00;0.00;;;;;13.64;72.41;99287.38;4995573;28;45475;-82
2021/12/28 06:35:04;;;;;;;;;0.00;0.00;;;;;14.10;72.45;99364.91;4995266;28;46033;-82
2021/12/28 06:37:29;;;;;;;;;0.33;0.33;;;;;14.03;72.15;99358.34;4995613;28;45508;-83
2021/12/28 06:39:55;;;;;;;;;1.67;0.67;;;;;14.00;71.68;99372.00;5010318;28;48168;-82
2021/12/28 06:42:20;;;;;;;;;3.00;0.00;;;;;13.75;71.64;99337.41;4995359;28;45434;-82
2021/12/28 06:44:47;;;;;;;;;1.00;1.00;;;;;14.03;71.01;99382.44;4994995;28;45501;-83
2021/12/28 06:47:13;;;;;;;;;1.67;1.67;;;;;14.07;70.37;99401.78;4995709;28;45439;-82
2021/12/28 06:49:38;;;;;;;;;0.67;0.67;;;;;14.02;71.24;99378.03;4995259;28;46251;-82
2021/12/28 06:52:06;;;;;;;;;2.00;0.00;;;;;13.82;70.94;99341.31;4995104;28;45316;-82
2021/12/28 06:54:36;;;;;;;;;0.00;0.00;;;;;13.84;70.38;99326.81;4995294;28;45377;-82
2021/12/28 06:57:04;;;;;;;;;2.00;0.00;;;;;14.14;70.17;99378.88;4995554;28;45455;-82
2021/12/28 06:59:29;;;;;;;;;1.67;0.67;;;;;13.94;70.39;99359.06;4994876;28;45469;-82
2021/12/28 07:01:54;;;;;;;;;2.00;0.67;;;;;13.68;70.08;99310.28;4993823;28;45646;-82
2021/12/28 07:04:19;;;;;;;;;0.33;0.33;;;;;13.40;69.13;99263.44;4993768;28;45526;-82
2021/12/28 07:06:45;;;;;;;;;2.67;0.67;;;;;14.12;69.53;99384.38;4994510;28;45501;-82
2021/12/28 07:09:10;;;;;;;;;1.00;1.00;;;;;13.89;68.84;99337.16;4995089;28;45997;-82
2021/12/28 07:11:35;;;;;;;;;1.00;0.00;;;;;14.02;69.86;99358.44;4994335;28;51773;-82
2021/12/28 07:14:01;;;;;;;;;3.00;1.33;;;;;14.10;69.75;99380.97;4995048;28;45488;-82
2021/12/28 07:16:26;;;;;;;;;1.00;1.00;;;;;14.10;68.72;99396.22;4995117;28;45445;-82
2021/12/28 07:18:51;;;;;;;;;0.00;0.00;;;;;14.11;68.92;99397.91;4994707;28;46476;-82
2021/12/28 07:21:17;;;;;;;;;3.33;2.00;;;;;13.97;69.38;99371.38;4995271;28;45486;-82
2021/12/28 07:23:42;;;;;;;;;2.00;0.00;;;;;14.12;68.97;99405.81;4995100;28;45486;-82
2021/12/28 07:26:07;;;;;;;;;0.67;0.67;;;;;14.06;69.41;99400.09;4994865;28;45496;-82
2021/12/28 07:28:33;;;;;;;;;2.33;1.00;;;;;13.81;69.12;99352.97;4994858;28;46113;-82
2021/12/28 07:30:58;;;;;;;;;7.00;4.67;;;;;13.65;68.95;99339.94;4994479;28;48986;-83
2021/12/28 07:33:24;;;;;;;;;2.67;1.67;;;;;14.08;69.46;99408.88;4995004;28;45391;-82
2021/12/28 07:35:49;;;;;;;;;1.00;1.00;;;;;14.00;68.93;99390.75;4993386;28;45451;-82
2021/12/28 07:38:14;;;;;;;;;3.00;3.00;;;;;13.69;69.37;99350.28;4994721;28;45589;-82
2021/12/28 07:40:40;;;;;;;;;4.00;4.00;;;;;14.17;69.12;99420.69;4994398;28;45452;-82
2021/12/28 07:43:05;;;;;;;;;2.67;1.33;;;;;14.15;69.68;99410.09;4992528;28;45448;-82
2021/12/28 07:45:31;;;;;;;;;2.33;2.00;;;;;14.19;69.19;99429.44;4994950;28;45539;-82
2021/12/28 07:47:56;;;;;;;;;2.33;1.00;;;;;14.19;69.18;99437.47;4993057;28;47753;-82
2021/12/28 07:50:22;;;;;;;;;3.00;1.33;;;;;14.15;69.14;99444.91;4994556;28;45407;-82
2021/12/28 07:52:49;;;;;;;;;2.67;1.00;;;;;14.07;69.07;99442.84;5009711;28;45473;-82
2021/12/28 07:55:16;;;;;;;;;2.33;1.33;;;;;14.22;69.16;99466.72;5009769;28;45317;-82
2021/12/28 07:57:41;;;;;;;;;2.00;2.00;;;;;13.92;70.24;99415.44;4994259;28;46106;-82
2021/12/28 08:00:11;;;;;;;;;1.33;1.00;;;;;13.86;69.80;99407.03;4994133;28;45250;-82
2021/12/28 08:02:38;;;;;;;;;2.33;1.00;;;;;13.68;69.57;99375.38;4994482;28;45429;-81
2021/12/28 08:05:04;;;;;;;;;3.00;1.00;;;;;14.21;70.05;99473.03;4993138;28;45449;-82
2021/12/28 08:07:29;;;;;;;;;1.67;1.00;;;;;13.87;69.99;99414.94;4994040;28;45442;-82
2021/12/28 08:09:54;;;;;;;;;1.00;1.00;;;;;14.09;70.69;99451.63;4994053;28;45344;-83
2021/12/28 08:12:20;;;;;;;;;1.00;0.00;;;;;14.16;71.42;99465.38;4994348;28;45465;-82
2021/12/28 08:14:45;;;;;;;;;3.67;0.67;;;;;14.22;71.45;99477.44;5009564;28;45655;-82
2021/12/28 08:17:10;;;;;;;;;1.00;1.00;;;;;14.23;71.49;99490.72;4993987;28;46909;-82
2021/12/28 08:19:37;;;;;;;;;1.00;1.00;;;;;14.20;71.37;99490.97;4995449;28;45498;-82
2021/12/28 08:22:03;;;;;;;;;1.33;1.00;;;;;14.21;71.26;99500.72;4997138;28;45533;-81
2021/12/28 08:24:29;;;;;;;;;2.00;2.00;;;;;13.74;71.35;99427.59;4997091;28;45341;-82
2021/12/28 08:26:54;;;;;;;;;1.33;0.00;;;;;14.22;71.60;99510.47;4996786;28;45580;-81
2021/12/28 08:29:20;;;;;;;;;0.67;0.67;;;;;14.11;71.18;99491.69;5012170;28;45465;-82
2021/12/28 08:31:45;;;;;;;;;1.67;0.33;;;;;13.79;71.71;99446.84;4997102;28;45463;-82
2021/12/28 08:34:10;;;;;;;;;0.00;0.00;;;;;13.96;71.65;99480.34;4997031;28;45340;-82
2021/12/28 08:36:36;;;;;;;;;0.00;0.00;;;;;14.21;71.51;99514.13;4996661;28;45558;-81
2021/12/28 08:39:02;;;;;;;;;3.00;0.00;;;;;14.01;71.04;99496.91;4996412;28;45442;-82
2021/12/28 08:41:28;;;;;;;;;0.00;0.00;;;;;13.93;71.31;99494.00;4996915;28;45458;-82
2021/12/28 08:43:53;;;;;;;;;1.33;0.00;;;;;13.88;71.67;99485.44;4997135;28;45232;-82
2021/12/28 08:46:18;;;;;;;;;0.00;0.00;;;;;14.21;72.18;99543.59;4996656;28;46532;-82
2021/12/28 08:48:44;;;;;;;;;0.00;0.00;;;;;14.05;72.35;99535.91;4995367;28;45400;-82
2021/12/28 08:51:10;;;;;;;;;1.00;0.00;;;;;13.90;73.12;99510.28;4996674;28;45374;-82
2021/12/28 08:53:35;;;;;;;;;1.00;0.33;;;;;14.13;73.03;99537.97;4996810;28;45432;-81
2021/12/28 08:56:00;;;;;;;;;0.00;0.00;;;;;13.94;72.55;99503.72;4995211;28;47405;-83
2021/12/28 08:58:26;;;;;;;;;0.00;0.00;;;;;14.13;72.88;99528.09;4996491;28;45602;-81
2021/12/28 09:00:51;;;;;;;;;1.00;0.00;;;;;13.91;72.76;99507.50;4996623;28;45378;-82
2021/12/28 09:03:17;;;;;;;;;1.00;0.00;;;;;14.09;72.81;99539.19;4996870;28;45330;-82
2021/12/28 09:05:42;;;;;;;;;0.00;0.00;;;;;13.78;72.71;99485.31;4994989;28;47224;-82
2021/12/28 09:08:13;;;;;;;;;0.33;0.33;;;;;13.83;71.90;99496.50;4996065;28;45651;-82
2021/12/28 09:10:39;;;;;;;;;0.33;0.33;;;;;14.12;71.23;99549.69;4995233;28;45360;-81
2021/12/28 09:13:05;;;;;;;;;1.00;0.00;;;;;13.95;71.18;99524.16;4996867;28;45396;-82
2021/12/28 09:15:31;;;;;;;;;3.00;1.00;;;;;13.94;71.06;99525.16;4996245;28;46046;-84
2021/12/28 09:17:56;;;;;;;;;1.00;1.00;;;;;14.15;70.65;99555.63;4996429;28;45400;-81
2021/12/28 09:20:23;;;;;;;;;0.00;0.00;;;;;14.18;70.31;99540.28;4996434;28;45592;-82
2021/12/28 09:22:51;;;;;;;;;1.00;1.00;;;;;14.19;70.12;99545.53;4996397;28;45452;-81
2021/12/28 09:25:18;;;;;;;;;2.00;2.00;;;;;14.19;69.63;99552.72;4995953;28;45553;-81
2021/12/28 09:27:44;;;;;;;;;0.67;0.67;;;;;13.58;69.57;99460.09;4995995;28;45360;-81
2021/12/28 09:30:10;;;;;;;;;1.00;1.00;;;;;13.73;69.25;99477.63;4995620;28;45342;-81
2021/12/28 09:32:35;;;;;;;;;3.00;0.67;;;;;13.86;68.75;99493.59;4996526;28;45234;-81
2021/12/28 09:35:02;;;;;;;;;0.67;0.67;;;;;14.20;68.01;99547.22;4995749;28;45731;-81
2021/12/28 09:37:28;;;;;;;;;1.00;1.00;;;;;13.99;68.20;99516.75;4995394;28;45523;-81
2021/12/28 09:39:54;;;;;;;;;1.00;1.00;;;;;14.10;67.32;99549.78;4996329;28;46118;-81
2021/12/28 09:42:19;;;;;;;;;3.67;2.00;;;;;14.31;68.21;99567.84;4996196;28;45365;-81
2021/12/28 09:44:49;;;;;;;;;2.00;2.00;;;;;14.33;67.95;99572.13;4995973;28;45990;-81
2021/12/28 09:47:16;;;;;;;;;3.33;1.33;;;;;14.18;66.27;99542.97;4995911;28;45350;-81
2021/12/28 09:49:43;;;;;;;;;0.00;0.00;;;;;14.36;66.47;99571.03;4994574;28;45447;-82
2021/12/28 09:52:08;;;;;;;;;3.00;2.00;;;;;14.37;67.03;99583.44;4995869;28;45446;-81
2021/12/28 09:54:34;;;;;;;;;6.33;3.00;;;;;13.98;65.43;99520.41;4995662;28;46418;-81
2021/12/28 09:57:00;;;;;;;;;2.00;2.00;;;;;14.34;65.21;99589.03;4995953;28;45417;-81
2021/12/28 09:59:31;;;;;;;;;2.33;1.00;;;;;14.34;65.08;99589.03;4995741;28;45439;-81
2021/12/28 10:01:59;;;;;;;;;2.33;1.00;;;;;14.30;64.56;99585.75;4996204;28;45560;-81
2021/12/28 10:04:26;;;;;;;;;1.00;1.00;;;;;14.12;64.20;99558.56;4995352;28;45450;-81
2021/12/28 10:06:51;;;;;;;;;2.00;2.00;;;;;14.06;63.25;99534.91;4995370;28;45327;-81
2021/12/28 10:09:21;;;;;;;;;3.00;1.33;;;;;14.37;63.44;99586.13;4995980;28;45686;-81
2021/12/28 10:11:49;;;;;;;;;4.33;2.00;;;;;14.33;62.87;99584.66;4994710;28;45669;-81
2021/12/28 10:14:26;;;;;;;;;2.33;1.00;;;;;14.32;62.49;99591.84;4995147;28;46656;-81
2021/12/28 10:17:01;;;;;;;;;5.67;4.00;;;;;14.07;62.36;99566.09;4995414;28;45534;-81
2021/12/28 10:19:39;;;;;;;;;3.67;0.00;;;;;14.20;62.22;99605.34;4995625;28;45432;-80
2021/12/28 10:22:39;;;;;;;;;1.00;1.00;;;;;14.21;62.58;99624.00;4995615;28;45576;-82
2021/12/28 10:25:12;;;;;;;;;2.00;2.00;;;;;14.00;61.84;99586.31;5035865;28;46111;-81
2021/12/28 10:27:44;;;;;;;;;2.00;2.00;;;;;14.19;61.79;99617.91;5019050;28;45435;-81
2021/12/28 10:30:16;;;;;;;;;3.00;3.00;;;;;14.12;61.46;99622.03;5035979;28;45605;-81
2021/12/28 10:32:44;;;;;;;;;4.00;1.00;;;;;14.06;61.56;99598.38;5035991;28;45624;-81
2021/12/28 10:35:20;;;;;;;;;2.00;2.00;;;;;14.19;61.62;99619.69;5035245;28;46466;-81
2021/12/28 10:37:52;;;;;;;;;6.33;2.00;;;;;14.00;60.77;99582.75;5035553;28;45400;-81
2021/12/28 10:40:25;;;;;;;;;4.00;3.00;;;;;14.22;61.28;99639.09;5035836;28;45612;-81
2021/12/28 10:42:55;;;;;;;;;7.00;2.67;;;;;14.22;61.13;99628.38;5035064;28;45482;-81
2021/12/28 10:45:47;;;;;;;;;5.33;3.00;;;;;14.23;61.48;99639.94;5035651;28;46169;-81
2021/12/28 10:48:25;;;;;;;;;6.67;4.00;;;;;14.28;61.64;99640.44;5031575;28;45571;-81
2021/12/28 10:51:15;;;;;;;;;5.33;4.00;;;;;14.30;61.43;99633.97;5035358;28;45501;-80
2021/12/28 10:56:35;;;;;;;;;5.00;5.00;;;;;14.34;61.07;99643.50;5035216;28;45597;-81
2021/12/28 10:59:02;;;;;;;;;5.00;4.00;;;;;14.38;60.84;99645.97;5016457;28;45413;-81
2021/12/28 11:01:32;;;;;;;;;3.00;3.00;;;;;14.19;60.48;99608.97;4995145;28;45447;-81
2021/12/28 11:04:05;;;;;;;;;3.67;3.67;;;;;14.10;60.75;99595.34;4995036;28;45362;-81
2021/12/28 11:06:33;;;;;;;;;7.67;1.33;;;;;14.32;60.34;99624.00;4995063;28;46267;-81
2021/12/28 11:09:00;;;;;;;;;7.33;2.33;;;;;14.52;60.42;99651.13;4995047;28;45577;-82
2021/12/28 11:11:26;;;;;;;;;5.67;2.67;;;;;14.54;59.89;99638.47;4995248;28;45467;-81
2021/12/28 11:13:57;;;;;;;;;4.00;2.33;;;;;14.58;59.32;99645.28;4995336;28;45522;-81
2021/12/28 11:16:26;;;;;;;;;3.33;2.00;;;;;14.68;59.44;99656.13;4994656;28;45421;-81
2021/12/28 11:18:53;;;;;;;;;7.67;5.00;;;;;14.69;58.62;99655.19;5009498;28;45523;-82
2021/12/28 11:21:34;;;;;;;;;5.00;3.33;;;;;14.66;58.78;99652.75;4995168;28;45465;-82
2021/12/28 11:24:13;;;;;;;;;7.00;6.33;;;;;14.63;59.44;99656.50;4995210;28;45339;-81
2021/12/28 11:26:44;;;;;;;;;4.00;2.67;;;;;14.62;58.97;99660.16;4994652;28;46938;-82
2021/12/28 11:29:16;;;;;;;;;3.33;2.67;;;;;14.47;58.61;99642.53;4994786;28;45588;-83
2021/12/28 11:31:51;;;;;;;;;5.67;4.00;;;;;13.94;58.43;99568.84;4994827;28;45385;-82
2021/12/28 11:34:28;;;;;;;;;5.00;3.33;;;;;14.14;58.06;99609.34;4994753;28;45429;-82
2021/12/28 11:37:02;;;;;;;;;5.67;3.00;;;;;14.74;57.15;99696.75;4993982;28;45525;-82